Time;durP1;ratioP1;P1;durP2;ratioP2;P2;SDS_P1;SDS_P2;PMS_P1;PMS_P2;Temp;Humidity;BMP_temperature;BMP_pressure;BME280_temperature;BME280_humidity;BME280_pressure;Samples;Min_cycle;Max_cycle;Signal;HPM_P1;HPM_P2
2024/02/25 00:01:40;;;;;;;;;;;;;;;;;;5045748;28;20376;-70
2024/02/25 00:04:08;;;;;;;;;;;;;;;;;;5044822;28;20004;-70
2024/02/25 00:06:34;;;;;;;;;;;;;;;;;;5046206;28;20541;-70
2024/02/25 00:08:59;;;;;;;;;;;;;;;;;;5049707;28;19942;-70
2024/02/25 00:11:24;;;;;;;;;;;;;;;;;;5048764;28;20800;-70
2024/02/25 00:13:52;;;;;;;;;;;;;;;;;;5045362;28;21618;-69
2024/02/25 00:16:18;;;;;;;;;;;;;;;;;;5047990;28;19920;-70
2024/02/25 00:18:43;;;;;;;;;;;;;;;;;;5049467;28;19926;-70
2024/02/25 00:21:11;;;;;;;;;;;;;;;;;;5047369;28;19924;-71
2024/02/25 00:23:36;;;;;;;;;;;;;;;;;;5048237;28;20356;-70
2024/02/25 00:26:04;;;;;;;;;;;;;;;;;;5047383;28;19921;-69
2024/02/25 00:28:29;;;;;;;;;;;;;;;;;;5045373;28;19927;-69
2024/02/25 00:30:57;;;;;;;;;;;;;;;;;;5048263;28;19921;-70
2024/02/25 00:33:22;;;;;;;;;;;;;;;;;;5047650;28;20360;-69
2024/02/25 00:35:47;;;;;;;;;;;;;;;;;;5042558;28;19924;-70
2024/02/25 00:38:13;;;;;;;;;;;;;;;;;;5047713;28;19916;-70
2024/02/25 00:40:38;;;;;;;;;;;;;;;;;;5045123;28;20383;-69
2024/02/25 00:43:04;;;;;;;;;;;;;;;;;;5051303;28;20021;-70
2024/02/25 00:45:29;;;;;;;;;;;;;;;;;;5063583;28;19921;-69
2024/02/25 00:47:59;;;;;;;;;;;;;;;;;;5063435;28;20328;-69
2024/02/25 00:50:25;;;;;;;;;;;;;;;;;;5063995;28;19926;-68
2024/02/25 00:52:53;;;;;;;;;;;;;;;;;;5065935;28;19920;-69
2024/02/25 00:55:18;;;;;;;;;;;;;;;;;;5066791;28;19994;-68
2024/02/25 00:57:43;;;;;;;;;;;;;;;;;;5065874;28;19916;-68
2024/02/25 01:00:09;;;;;;;;;;;;;;;;;;5064476;28;19916;-67
2024/02/25 01:02:34;;;;;;;;;;;;;;;;;;5048840;28;19927;-67
2024/02/25 01:04:59;;;;;;;;;;;;;;;;;;5065630;28;20419;-67
2024/02/25 01:07:24;;;;;;;;;;;;;;;;;;5061896;28;19931;-68
2024/02/25 01:09:50;;;;;;;;;;;;;;;;;;5064870;28;19955;-68
2024/02/25 01:12:15;;;;;;;;;;;;;;;;;;5063863;28;19920;-68
2024/02/25 01:14:42;;;;;;;;;;;;;;;;;;5047574;28;20367;-68
2024/02/25 01:17:07;;;;;;;;;;;;;;;;;;5041148;28;19946;-67
2024/02/25 01:19:32;;;;;;;;;;;;;;;;;;5062253;28;20486;-68
2024/02/25 01:21:57;;;;;;;;;;;;;;;;;;5061744;28;19990;-67
2024/02/25 01:24:23;;;;;;;;;;;;;;;;;;5062542;28;20054;-67
2024/02/25 01:30:05;;;;;;;;;;;;;;;;;;5065305;28;19953;-68
2024/02/25 01:32:30;;;;;;;;;;;;;;;;;;5046312;28;19920;-67
2024/02/25 01:35:00;;;;;;;;;;;;;;;;;;5060077;28;20006;-68
2024/02/25 01:37:31;;;;;;;;;;;;;;;;;;5061829;28;20002;-67
2024/02/25 01:39:56;;;;;;;;;;;;;;;;;;5066057;28;20391;-67
2024/02/25 01:42:27;;;;;;;;;;;;;;;;;;5057039;28;20010;-68
2024/02/25 01:44:59;;;;;;;;;;;;;;;;;;5067896;28;19928;-68
2024/02/25 01:47:27;;;;;;;;;;;;;;;;;;5064625;28;20362;-67
2024/02/25 01:49:53;;;;;;;;;;;;;;;;;;5068222;28;20936;-67
2024/02/25 01:52:18;;;;;;;;;;;;;;;;;;5067957;28;19967;-68
2024/02/25 01:54:43;;;;;;;;;;;;;;;;;;5064066;28;19982;-69
2024/02/25 01:57:11;;;;;;;;;;;;;;;;;;5064392;28;19920;-69
2024/02/25 01:59:36;;;;;;;;;;;;;;;;;;5069604;28;19994;-67
2024/02/25 02:02:05;;;;;;;;;;;;;;;;;;5068883;28;19924;-68
2024/02/25 02:04:35;;;;;;;;;;;;;;;;;;5063339;28;20612;-67
2024/02/25 02:07:06;;;;;;;;;;;;;;;;;;5053324;28;20367;-68
2024/02/25 02:09:32;;;;;;;;;;;;;;;;;;5050055;28;19920;-69
2024/02/25 02:11:57;;;;;;;;;;;;;;;;;;5069352;28;20504;-67
2024/02/25 02:14:25;;;;;;;;;;;;;;;;;;5067694;28;19920;-69
2024/02/25 02:16:50;;;;;;;;;;;;;;;;;;5068126;28;19919;-67
2024/02/25 02:19:15;;;;;;;;;;;;;;;;;;5068492;28;19920;-68
2024/02/25 02:21:43;;;;;;;;;;;;;;;;;;5070061;28;19962;-69
2024/02/25 02:24:14;;;;;;;;;;;;;;;;;;5065560;28;20015;-69
2024/02/25 02:26:40;;;;;;;;;;;;;;;;;;5062236;28;20651;-68
2024/02/25 02:29:05;;;;;;;;;;;;;;;;;;5052947;28;19916;-68
2024/02/25 02:31:31;;;;;;;;;;;;;;;;;;5066453;28;19927;-69
2024/02/25 02:33:56;;;;;;;;;;;;;;;;;;5068038;28;19920;-67
2024/02/25 02:36:27;;;;;;;;;;;;;;;;;;5053419;28;19920;-68
2024/02/25 02:38:53;;;;;;;;;;;;;;;;;;5068325;28;19920;-68
2024/02/25 02:41:25;;;;;;;;;;;;;;;;;;5067419;28;20026;-68
2024/02/25 02:43:50;;;;;;;;;;;;;;;;;;5073167;28;19923;-69
2024/02/25 02:46:18;;;;;;;;;;;;;;;;;;5070911;28;20431;-68
2024/02/25 02:48:43;;;;;;;;;;;;;;;;;;5057316;28;20496;-69
2024/02/25 02:51:08;;;;;;;;;;;;;;;;;;5066858;28;19920;-68
2024/02/25 02:53:36;;;;;;;;;;;;;;;;;;5068964;28;19925;-68
2024/02/25 02:56:01;;;;;;;;;;;;;;;;;;5083816;28;19928;-68
2024/02/25 02:58:28;;;;;;;;;;;;;;;;;;5084403;28;20007;-69
2024/02/25 03:00:53;;;;;;;;;;;;;;;;;;5060743;28;19972;-67
2024/02/25 03:03:19;;;;;;;;;;;;;;;;;;5063466;28;20087;-68
2024/02/25 03:05:44;;;;;;;;;;;;;;;;;;5065524;28;19924;-69
2024/02/25 03:08:12;;;;;;;;;;;;;;;;;;5066375;28;19920;-68
2024/02/25 03:10:37;;;;;;;;;;;;;;;;;;5081953;28;19927;-68
2024/02/25 03:13:03;;;;;;;;;;;;;;;;;;5082474;28;19915;-69
2024/02/25 03:15:28;;;;;;;;;;;;;;;;;;5087278;28;19974;-69
2024/02/25 03:17:56;;;;;;;;;;;;;;;;;;5072746;28;20023;-68
2024/02/25 03:20:21;;;;;;;;;;;;;;;;;;5085803;28;19919;-68
2024/02/25 03:22:46;;;;;;;;;;;;;;;;;;5070292;28;19923;-68
2024/02/25 03:25:12;;;;;;;;;;;;;;;;;;5066134;28;19970;-68
2024/02/25 03:27:37;;;;;;;;;;;;;;;;;;5073319;28;20019;-68
2024/02/25 03:30:03;;;;;;;;;;;;;;;;;;5071211;28;20350;-69
2024/02/25 03:32:31;;;;;;;;;;;;;;;;;;5066540;28;19928;-68
2024/02/25 03:34:59;;;;;;;;;;;;;;;;;;5070333;28;19916;-68
2024/02/25 03:37:24;;;;;;;;;;;;;;;;;;5070516;28;20636;-68
2024/02/25 03:39:52;;;;;;;;;;;;;;;;;;5085735;28;19920;-68
2024/02/25 03:42:17;;;;;;;;;;;;;;;;;;5066370;28;19919;-69
2024/02/25 03:44:42;;;;;;;;;;;;;;;;;;5070753;28;19950;-69
2024/02/25 03:47:07;;;;;;;;;;;;;;;;;;5070551;28;19927;-69
2024/02/25 03:49:33;;;;;;;;;;;;;;;;;;5084727;28;19915;-69
2024/02/25 03:51:58;;;;;;;;;;;;;;;;;;5064631;28;19993;-69
2024/02/25 03:54:26;;;;;;;;;;;;;;;;;;5065240;28;19916;-69
2024/02/25 03:56:54;;;;;;;;;;;;;;;;;;5051657;28;19919;-69
2024/02/25 03:59:20;;;;;;;;;;;;;;;;;;5068989;28;19930;-69
2024/02/25 04:01:45;;;;;;;;;;;;;;;;;;5084764;28;20402;-69
2024/02/25 04:04:13;;;;;;;;;;;;;;;;;;5068820;28;19920;-68
2024/02/25 04:06:38;;;;;;;;;;;;;;;;;;5085172;28;19931;-68
2024/02/25 04:09:04;;;;;;;;;;;;;;;;;;5055156;28;19916;-68
2024/02/25 04:11:29;;;;;;;;;;;;;;;;;;5084238;28;19920;-68
2024/02/25 04:13:54;;;;;;;;;;;;;;;;;;5083686;28;19916;-69
2024/02/25 04:16:19;;;;;;;;;;;;;;;;;;5063799;28;19938;-69
2024/02/25 04:19:05;;;;;;;;;;;;;;;;;;5071634;28;20366;-68
2024/02/25 04:21:30;;;;;;;;;;;;;;;;;;5070294;28;19919;-67
2024/02/25 04:23:56;;;;;;;;;;;;;;;;;;5080785;28;19920;-68
2024/02/25 04:26:21;;;;;;;;;;;;;;;;;;5067868;28;19926;-67
2024/02/25 04:28:49;;;;;;;;;;;;;;;;;;5069436;28;19920;-67
2024/02/25 04:31:17;;;;;;;;;;;;;;;;;;5053666;28;19927;-68
2024/02/25 04:33:45;;;;;;;;;;;;;;;;;;5080440;28;19920;-69
2024/02/25 04:36:11;;;;;;;;;;;;;;;;;;5082853;28;19915;-68
2024/02/25 04:38:38;;;;;;;;;;;;;;;;;;5063997;28;20006;-69
2024/02/25 04:41:06;;;;;;;;;;;;;;;;;;5084310;28;20747;-68
2024/02/25 04:43:31;;;;;;;;;;;;;;;;;;5061624;28;19928;-69
2024/02/25 04:45:59;;;;;;;;;;;;;;;;;;5080983;28;20915;-68
2024/02/25 04:48:24;;;;;;;;;;;;;;;;;;5063033;28;20418;-68
2024/02/25 04:50:50;;;;;;;;;;;;;;;;;;5067073;28;19915;-68
2024/02/25 04:53:20;;;;;;;;;;;;;;;;;;5063253;28;20220;-68
2024/02/25 04:55:48;;;;;;;;;;;;;;;;;;5079714;28;19924;-68
2024/02/25 04:58:14;;;;;;;;;;;;;;;;;;5084190;28;20477;-68
2024/02/25 05:00:41;;;;;;;;;;;;;;;;;;5082484;28;20005;-67
2024/02/25 05:03:11;;;;;;;;;;;;;;;;;;5068244;28;19922;-69
2024/02/25 05:05:37;;;;;;;;;;;;;;;;;;5086100;28;19923;-67
2024/02/25 05:08:07;;;;;;;;;;;;;;;;;;5058782;28;19927;-69
2024/02/25 05:10:33;;;;;;;;;;;;;;;;;;5069754;28;19955;-68
2024/02/25 05:12:58;;;;;;;;;;;;;;;;;;5066489;28;19999;-69
2024/02/25 05:15:28;;;;;;;;;;;;;;;;;;5083930;28;19920;-69
2024/02/25 05:17:53;;;;;;;;;;;;;;;;;;5084896;28;20346;-68
2024/02/25 05:20:18;;;;;;;;;;;;;;;;;;5090947;28;20010;-68
2024/02/25 05:22:43;;;;;;;;;;;;;;;;;;5087243;28;19976;-68
2024/02/25 05:25:09;;;;;;;;;;;;;;;;;;5087166;28;19920;-68
2024/02/25 05:27:36;;;;;;;;;;;;;;;;;;5065804;28;19920;-67
2024/02/25 05:30:04;;;;;;;;;;;;;;;;;;5090880;28;19947;-67
2024/02/25 05:32:29;;;;;;;;;;;;;;;;;;5068703;28;19915;-66
2024/02/25 05:35:00;;;;;;;;;;;;;;;;;;5087423;28;19920;-67
2024/02/25 05:37:25;;;;;;;;;;;;;;;;;;5068412;28;19936;-66
2024/02/25 05:39:50;;;;;;;;;;;;;;;;;;5064143;28;20391;-67
2024/02/25 05:42:16;;;;;;;;;;;;;;;;;;5081028;28;19923;-67
2024/02/25 05:44:41;;;;;;;;;;;;;;;;;;5068267;28;19920;-67
2024/02/25 05:47:06;;;;;;;;;;;;;;;;;;5087994;28;19931;-68
2024/02/25 05:49:32;;;;;;;;;;;;;;;;;;5072689;28;22117;-68
2024/02/25 05:51:57;;;;;;;;;;;;;;;;;;5051350;28;20046;-67
2024/02/25 05:54:22;;;;;;;;;;;;;;;;;;5068576;28;19994;-68
2024/02/25 05:56:47;;;;;;;;;;;;;;;;;;5070558;28;19918;-68
2024/02/25 05:59:15;;;;;;;;;;;;;;;;;;5068822;28;19920;-68
2024/02/25 06:01:45;;;;;;;;;;;;;;;;;;5084608;28;20069;-70
2024/02/25 06:04:14;;;;;;;;;;;;;;;;;;5070142;28;20694;-68
2024/02/25 06:06:39;;;;;;;;;;;;;;;;;;5064505;28;19927;-68
2024/02/25 06:09:10;;;;;;;;;;;;;;;;;;5086745;28;19920;-68
2024/02/25 06:11:38;;;;;;;;;;;;;;;;;;5084687;28;19962;-68
2024/02/25 06:14:03;;;;;;;;;;;;;;;;;;5069745;28;20093;-68
2024/02/25 06:16:34;;;;;;;;;;;;;;;;;;5065315;28;20350;-68
2024/02/25 06:19:01;;;;;;;;;;;;;;;;;;5070556;28;20415;-67
2024/02/25 06:21:30;;;;;;;;;;;;;;;;;;5071580;28;20026;-67
2024/02/25 06:23:58;;;;;;;;;;;;;;;;;;5068342;28;19919;-68
2024/02/25 06:26:25;;;;;;;;;;;;;;;;;;5051996;28;19916;-68
2024/02/25 06:28:53;;;;;;;;;;;;;;;;;;5065511;28;20302;-68
2024/02/25 06:31:21;;;;;;;;;;;;;;;;;;5070558;28;19919;-68
2024/02/25 06:33:49;;;;;;;;;;;;;;;;;;5086023;28;19978;-68
2024/02/25 06:36:14;;;;;;;;;;;;;;;;;;5070436;28;19916;-68
2024/02/25 06:38:42;;;;;;;;;;;;;;;;;;5057113;28;20386;-68
2024/02/25 06:41:07;;;;;;;;;;;;;;;;;;5084343;28;19924;-68
2024/02/25 06:43:34;;;;;;;;;;;;;;;;;;5068322;28;20231;-68
2024/02/25 06:45:59;;;;;;;;;;;;;;;;;;5069475;28;19916;-68
2024/02/25 06:48:24;;;;;;;;;;;;;;;;;;5087557;28;20379;-68
2024/02/25 06:50:49;;;;;;;;;;;;;;;;;;5068892;28;19971;-68
2024/02/25 06:53:18;;;;;;;;;;;;;;;;;;5062540;28;20264;-68
2024/02/25 06:55:45;;;;;;;;;;;;;;;;;;5071790;28;20294;-68
2024/02/25 06:58:10;;;;;;;;;;;;;;;;;;5079150;28;19970;-68
2024/02/25 07:00:38;;;;;;;;;;;;;;;;;;5071360;28;19926;-69
2024/02/25 07:03:03;;;;;;;;;;;;;;;;;;5068631;28;19964;-68
2024/02/25 07:05:31;;;;;;;;;;;;;;;;;;5085370;28;20415;-68
2024/02/25 07:07:57;;;;;;;;;;;;;;;;;;5089298;28;19926;-68
2024/02/25 07:10:22;;;;;;;;;;;;;;;;;;5083978;28;20360;-68
2024/02/25 07:12:48;;;;;;;;;;;;;;;;;;5047275;28;20855;-68
2024/02/25 07:15:16;;;;;;;;;;;;;;;;;;5087903;27;19915;-68
2024/02/25 07:17:46;;;;;;;;;;;;;;;;;;5086653;28;20406;-68
2024/02/25 07:20:14;;;;;;;;;;;;;;;;;;5088146;28;19967;-68
2024/02/25 07:22:39;;;;;;;;;;;;;;;;;;5072082;28;20116;-67
2024/02/25 07:25:05;;;;;;;;;;;;;;;;;;5089091;28;20294;-67
2024/02/25 07:27:34;;;;;;;;;;;;;;;;;;5069635;28;19920;-67
2024/02/25 07:29:59;;;;;;;;;;;;;;;;;;5087674;28;19915;-68
2024/02/25 07:32:26;;;;;;;;;;;;;;;;;;5068031;28;21524;-68
2024/02/25 07:34:55;;;;;;;;;;;;;;;;;;5087310;28;19954;-68
2024/02/25 07:37:22;;;;;;;;;;;;;;;;;;5067378;28;19921;-68
2024/02/25 07:39:50;;;;;;;;;;;;;;;;;;5087001;28;20045;-68
2024/02/25 07:42:18;;;;;;;;;;;;;;;;;;5087603;28;19920;-68
2024/02/25 07:44:45;;;;;;;;;;;;;;;;;;5067762;28;20027;-67
2024/02/25 07:47:13;;;;;;;;;;;;;;;;;;5078432;28;19920;-67
2024/02/25 07:49:39;;;;;;;;;;;;;;;;;;5084985;28;19962;-67
2024/02/25 07:52:04;;;;;;;;;;;;;;;;;;5073636;28;19920;-68
2024/02/25 07:54:29;;;;;;;;;;;;;;;;;;5087665;28;19920;-68
2024/02/25 07:56:54;;;;;;;;;;;;;;;;;;5086307;28;19943;-67
2024/02/25 07:59:22;;;;;;;;;;;;;;;;;;5053998;28;20252;-68
2024/02/25 08:01:49;;;;;;;;;;;;;;;;;;5084600;28;19973;-68
2024/02/25 08:04:17;;;;;;;;;;;;;;;;;;5082961;28;19919;-68
2024/02/25 08:06:47;;;;;;;;;;;;;;;;;;5084991;28;20605;-68
2024/02/25 08:09:12;;;;;;;;;;;;;;;;;;5070078;28;19916;-67
2024/02/25 08:11:40;;;;;;;;;;;;;;;;;;5081677;28;20241;-68
2024/02/25 08:14:06;;;;;;;;;;;;;;;;;;5061686;28;19927;-68
2024/02/25 08:16:37;;;;;;;;;;;;;;;;;;5067650;28;19908;-67
2024/02/25 08:19:05;;;;;;;;;;;;;;;;;;5069361;28;19999;-67
2024/02/25 08:21:30;;;;;;;;;;;;;;;;;;5065904;28;20453;-67
2024/02/25 08:23:56;;;;;;;;;;;;;;;;;;5083750;28;19982;-67
2024/02/25 08:26:21;;;;;;;;;;;;;;;;;;5084087;28;19957;-67
2024/02/25 08:28:51;;;;;;;;;;;;;;;;;;5083795;28;19926;-67
2024/02/25 08:31:16;;;;;;;;;;;;;;;;;;5053956;28;19968;-67
2024/02/25 08:33:41;;;;;;;;;;;;;;;;;;5082535;28;20214;-67
2024/02/25 08:36:09;;;;;;;;;;;;;;;;;;5085883;28;20286;-68
2024/02/25 08:38:34;;;;;;;;;;;;;;;;;;5063871;28;20485;-68
2024/02/25 08:41:03;;;;;;;;;;;;;;;;;;5086610;28;19930;-68
2024/02/25 08:43:28;;;;;;;;;;;;;;;;;;5069005;28;19931;-68
2024/02/25 08:45:56;;;;;;;;;;;;;;;;;;5083276;28;20492;-69
2024/02/25 08:48:27;;;;;;;;;;;;;;;;;;5068786;28;19931;-69
2024/02/25 08:50:55;;;;;;;;;;;;;;;;;;5075448;28;20021;-69
2024/02/25 08:53:22;;;;;;;;;;;;;;;;;;5089473;28;20011;-69
2024/02/25 08:55:53;;;;;;;;;;;;;;;;;;5088405;28;20066;-69
2024/02/25 08:58:21;;;;;;;;;;;;;;;;;;5086256;28;19920;-69
2024/02/25 09:00:49;;;;;;;;;;;;;;;;;;5058440;28;19931;-69
2024/02/25 09:03:16;;;;;;;;;;;;;;;;;;5088091;28;19919;-69
2024/02/25 09:05:44;;;;;;;;;;;;;;;;;;5055402;28;19915;-69
2024/02/25 09:08:15;;;;;;;;;;;;;;;;;;5067918;28;19916;-69
2024/02/25 09:10:43;;;;;;;;;;;;;;;;;;5074617;28;19966;-69
2024/02/25 09:13:11;;;;;;;;;;;;;;;;;;5070367;28;19962;-69
2024/02/25 09:15:36;;;;;;;;;;;;;;;;;;5068046;28;20066;-69
2024/02/25 09:18:04;;;;;;;;;;;;;;;;;;5071757;28;20412;-69
2024/02/25 09:20:30;;;;;;;;;;;;;;;;;;5067592;28;20494;-69
2024/02/25 09:22:55;;;;;;;;;;;;;;;;;;5089240;28;20049;-70
2024/02/25 09:25:23;;;;;;;;;;;;;;;;;;5072322;28;19927;-70
2024/02/25 09:27:49;;;;;;;;;;;;;;;;;;5090193;28;19919;-69
2024/02/25 09:30:14;;;;;;;;;;;;;;;;;;5087988;28;19927;-70
2024/02/25 09:32:42;;;;;;;;;;;;;;;;;;5071278;28;19919;-70
2024/02/25 09:35:07;;;;;;;;;;;;;;;;;;5086547;28;20004;-70
2024/02/25 09:37:32;;;;;;;;;;;;;;;;;;5085003;28;19916;-69
2024/02/25 09:39:58;;;;;;;;;;;;;;;;;;5089661;28;20351;-69
2024/02/25 09:42:23;;;;;;;;;;;;;;;;;;5071372;28;19951;-70
2024/02/25 09:44:48;;;;;;;;;;;;;;;;;;5073326;28;20311;-71
2024/02/25 09:47:14;;;;;;;;;;;;;;;;;;5088572;28;20432;-71
2024/02/25 09:49:42;;;;;;;;;;;;;;;;;;5088374;28;20393;-72
2024/02/25 09:52:10;;;;;;;;;;;;;;;;;;5072978;28;20385;-71
2024/02/25 09:54:36;;;;;;;;;;;;;;;;;;5072409;28;19926;-71
2024/02/25 09:57:01;;;;;;;;;;;;;;;;;;5074033;28;20219;-71
2024/02/25 09:59:26;;;;;;;;;;;;;;;;;;5085256;28;19920;-71
2024/02/25 10:01:51;;;;;;;;;;;;;;;;;;5086276;28;20363;-71
2024/02/25 10:04:18;;;;;;;;;;;;;;;;;;5071528;28;19920;-71
2024/02/25 10:06:44;;;;;;;;;;;;;;;;;;5087585;28;19923;-73
2024/02/25 10:09:11;;;;;;;;;;;;;;;;;;5073343;28;20327;-72
2024/02/25 10:11:37;;;;;;;;;;;;;;;;;;5090260;28;20667;-72
2024/02/25 10:14:04;;;;;;;;;;;;;;;;;;5087821;28;19926;-70
2024/02/25 10:16:32;;;;;;;;;;;;;;;;;;5086102;28;19984;-69
2024/02/25 10:18:59;;;;;;;;;;;;;;;;;;5069695;28;20351;-71
2024/02/25 10:21:25;;;;;;;;;;;;;;;;;;5071675;28;19946;-70
2024/02/25 10:23:50;;;;;;;;;;;;;;;;;;5069864;28;20311;-71
2024/02/25 10:26:16;;;;;;;;;;;;;;;;;;5088515;28;19916;-71
2024/02/25 10:28:41;;;;;;;;;;;;;;;;;;5065944;28;20220;-71
2024/02/25 10:31:08;;;;;;;;;;;;;;;;;;5085485;28;20011;-70
2024/02/25 10:33:33;;;;;;;;;;;;;;;;;;5071644;28;20275;-69
2024/02/25 10:35:59;;;;;;;;;;;;;;;;;;5087617;28;19916;-70
2024/02/25 10:38:24;;;;;;;;;;;;;;;;;;5069879;28;19920;-69
2024/02/25 10:40:49;;;;;;;;;;;;;;;;;;5086392;28;19920;-69
2024/02/25 10:43:14;;;;;;;;;;;;;;;;;;5083297;28;20093;-69
2024/02/25 10:45:40;;;;;;;;;;;;;;;;;;5086248;28;19965;-68
2024/02/25 10:48:05;;;;;;;;;;;;;;;;;;5087500;28;19920;-69
2024/02/25 10:50:33;;;;;;;;;;;;;;;;;;5074183;28;19947;-68
2024/02/25 10:52:58;;;;;;;;;;;;;;;;;;5055160;28;20416;-68
2024/02/25 10:55:24;;;;;;;;;;;;;;;;;;5072654;28;19977;-67
2024/02/25 10:57:49;;;;;;;;;;;;;;;;;;5070082;28;20427;-68
2024/02/25 11:00:14;;;;;;;;;;;;;;;;;;5073567;28;20808;-67
2024/02/25 11:02:42;;;;;;;;;;;;;;;;;;5087780;28;19920;-66
2024/02/25 11:05:10;;;;;;;;;;;;;;;;;;5086576;28;20003;-67
2024/02/25 11:07:41;;;;;;;;;;;;;;;;;;5070335;28;19916;-67
2024/02/25 11:10:06;;;;;;;;;;;;;;;;;;5051303;28;20047;-67
2024/02/25 11:12:31;;;;;;;;;;;;;;;;;;5089141;28;20393;-67
2024/02/25 11:14:58;;;;;;;;;;;;;;;;;;5073823;28;20387;-67
2024/02/25 11:17:27;;;;;;;;;;;;;;;;;;5066907;28;20020;-67
2024/02/25 11:19:53;;;;;;;;;;;;;;;;;;5073200;28;19944;-67
2024/02/25 11:22:18;;;;;;;;;;;;;;;;;;5069042;28;19923;-67
2024/02/25 11:24:43;;;;;;;;;;;;;;;;;;5089368;28;20373;-67
2024/02/25 11:27:09;;;;;;;;;;;;;;;;;;5067507;28;20183;-67
2024/02/25 11:29:34;;;;;;;;;;;;;;;;;;5070427;28;19920;-67
2024/02/25 11:32:00;;;;;;;;;;;;;;;;;;5069285;28;20278;-68
2024/02/25 11:34:25;;;;;;;;;;;;;;;;;;5084711;28;19916;-67
2024/02/25 11:36:51;;;;;;;;;;;;;;;;;;5063403;28;20322;-67
2024/02/25 11:39:16;;;;;;;;;;;;;;;;;;5069053;28;20235;-67
2024/02/25 11:41:44;;;;;;;;;;;;;;;;;;5085854;28;20407;-68
2024/02/25 11:44:09;;;;;;;;;;;;;;;;;;5067688;28;20270;-68
2024/02/25 11:46:35;;;;;;;;;;;;;;;;;;5070708;28;20437;-68
2024/02/25 11:49:01;;;;;;;;;;;;;;;;;;5065874;28;20287;-66
2024/02/25 11:51:26;;;;;;;;;;;;;;;;;;5067180;28;19925;-67
2024/02/25 11:53:52;;;;;;;;;;;;;;;;;;5085526;28;20660;-67
2024/02/25 11:56:17;;;;;;;;;;;;;;;;;;5067586;28;20337;-67
2024/02/25 11:58:42;;;;;;;;;;;;;;;;;;5083285;28;19920;-67
2024/02/25 12:01:08;;;;;;;;;;;;;;;;;;5067674;28;20050;-66
2024/02/25 12:03:33;;;;;;;;;;;;;;;;;;5083963;28;19920;-67
2024/02/25 12:05:59;;;;;;;;;;;;;;;;;;5072805;28;20306;-68
2024/02/25 12:08:24;;;;;;;;;;;;;;;;;;5084839;28;19915;-67
2024/02/25 12:10:52;;;;;;;;;;;;;;;;;;5085447;28;19924;-68
2024/02/25 12:13:17;;;;;;;;;;;;;;;;;;5069531;28;19958;-68
2024/02/25 12:15:43;;;;;;;;;;;;;;;;;;5085548;28;20046;-68
2024/02/25 12:18:08;;;;;;;;;;;;;;;;;;5051553;28;19924;-70
2024/02/25 12:20:33;;;;;;;;;;;;;;;;;;5068668;28;19959;-68
2024/02/25 12:23:00;;;;;;;;;;;;;;;;;;5084125;28;20068;-67
2024/02/25 12:25:25;;;;;;;;;;;;;;;;;;5069382;28;19924;-68
2024/02/25 12:27:52;;;;;;;;;;;;;;;;;;5085137;28;20659;-67
2024/02/25 12:30:17;;;;;;;;;;;;;;;;;;5084682;28;19959;-66
2024/02/25 12:32:43;;;;;;;;;;;;;;;;;;5084095;28;20007;-64
2024/02/25 12:35:08;;;;;;;;;;;;;;;;;;5083610;28;20043;-65
2024/02/25 12:37:33;;;;;;;;;;;;;;;;;;5081877;28;20554;-64
2024/02/25 12:40:05;;;;;;;;;;;;;;;;;;5053203;28;19923;-65
2024/02/25 12:42:30;;;;;;;;;;;;;;;;;;5068124;28;20017;-65
2024/02/25 12:44:58;;;;;;;;;;;;;;;;;;5086188;28;19930;-66
2024/02/25 12:47:26;;;;;;;;;;;;;;;;;;5053561;28;20448;-67
2024/02/25 12:49:52;;;;;;;;;;;;;;;;;;5070405;28;20006;-67
2024/02/25 12:52:19;;;;;;;;;;;;;;;;;;5085946;28;19963;-67
2024/02/25 12:54:47;;;;;;;;;;;;;;;;;;5084597;28;20174;-67
2024/02/25 12:57:12;;;;;;;;;;;;;;;;;;5084571;28;19916;-67
2024/02/25 12:59:38;;;;;;;;;;;;;;;;;;5084544;28;19916;-67
2024/02/25 13:02:06;;;;;;;;;;;;;;;;;;5069590;28;19920;-67
2024/02/25 13:04:32;;;;;;;;;;;;;;;;;;5071142;28;19982;-66
2024/02/25 13:07:15;;;;;;;;;;;;;;;;;;5086206;28;19920;-66
2024/02/25 13:09:40;;;;;;;;;;;;;;;;;;5069026;28;19946;-66
2024/02/25 13:12:09;;;;;;;;;;;;;;;;;;5069232;28;19923;-66
2024/02/25 13:14:35;;;;;;;;;;;;;;;;;;5067756;28;19923;-66
2024/02/25 13:17:03;;;;;;;;;;;;;;;;;;5066338;28;19983;-66
2024/02/25 13:19:28;;;;;;;;;;;;;;;;;;5052672;28;19919;-66
2024/02/25 13:21:54;;;;;;;;;;;;;;;;;;5065758;28;20539;-67
2024/02/25 13:24:19;;;;;;;;;;;;;;;;;;5056012;28;19937;-66
2024/02/25 13:26:48;;;;;;;;;;;;;;;;;;5085100;28;19920;-66
2024/02/25 13:29:13;;;;;;;;;;;;;;;;;;5085121;28;20447;-66
2024/02/25 13:31:38;;;;;;;;;;;;;;;;;;5070148;28;20294;-66
2024/02/25 13:34:06;;;;;;;;;;;;;;;;;;5068418;28;19915;-68
2024/02/25 13:36:34;;;;;;;;;;;;;;;;;;5072835;28;20059;-65
2024/02/25 13:39:00;;;;;;;;;;;;;;;;;;5087083;28;20397;-65
2024/02/25 13:41:30;;;;;;;;;;;;;;;;;;5072782;28;19923;-65
2024/02/25 13:44:48;;;;;;;;;;;;;;;;;;5077750;28;19931;-66
2024/02/25 13:47:15;;;;;;;;;;;;;;;;;;5088542;28;20318;-64
2024/02/25 13:49:40;;;;;;;;;;;;;;;;;;5088469;28;20364;-65
2024/02/25 13:52:06;;;;;;;;;;;;;;;;;;5073403;28;20451;-65
2024/02/25 13:54:33;;;;;;;;;;;;;;;;;;5072836;28;20010;-64
2024/02/25 13:57:01;;;;;;;;;;;;;;;;;;5087016;28;20022;-64
2024/02/25 13:59:26;;;;;;;;;;;;;;;;;;5087357;28;20368;-65
2024/02/25 14:01:55;;;;;;;;;;;;;;;;;;5085973;28;19931;-64
2024/02/25 14:04:21;;;;;;;;;;;;;;;;;;5071018;28;19922;-64
2024/02/25 14:06:46;;;;;;;;;;;;;;;;;;5072207;28;20614;-64
2024/02/25 14:09:11;;;;;;;;;;;;;;;;;;5072499;28;19999;-66
2024/02/25 14:11:39;;;;;;;;;;;;;;;;;;5086867;28;19919;-65
2024/02/25 14:14:04;;;;;;;;;;;;;;;;;;5089553;28;19912;-65
2024/02/25 14:16:30;;;;;;;;;;;;;;;;;;5056553;28;19935;-65
2024/02/25 14:18:59;;;;;;;;;;;;;;;;;;5089025;28;21595;-66
2024/02/25 14:21:25;;;;;;;;;;;;;;;;;;5087109;28;20382;-65
2024/02/25 14:26:39;;;;;;;;;;;;;;;;;;5117764;22;19974;-65
2024/02/25 14:29:05;;;;;;;;;;;;;;;;;;5024472;28;19924;-66
2024/02/25 14:31:30;;;;;;;;;;;;;;;;;;5031652;28;20544;-65
2024/02/25 14:33:58;;;;;;;;;;;;;;;;;;5032368;28;19921;-66
2024/02/25 14:36:23;;;;;;;;;;;;;;;;;;5032939;28;20401;-65
2024/02/25 14:38:49;;;;;;;;;;;;;;;;;;5039137;28;20521;-65
2024/02/25 14:41:17;;;;;;;;;;;;;;;;;;5049785;28;20112;-65
2024/02/25 14:43:43;;;;;;;;;;;;;;;;;;5032500;28;19921;-65
2024/02/25 14:46:10;;;;;;;;;;;;;;;;;;5018272;28;19909;-65
2024/02/25 14:48:35;;;;;;;;;;;;;;;;;;5048345;28;19927;-65
2024/02/25 14:51:00;;;;;;;;;;;;;;;;;;5031520;28;19916;-65
2024/02/25 14:53:28;;;;;;;;;;;;;;;;;;5047697;28;20437;-65
2024/02/25 14:55:58;;;;;;;;;;;;;;;;;;5046602;28;20355;-65
2024/02/25 14:58:27;;;;;;;;;;;;;;;;;;5016158;28;20106;-66
2024/02/25 15:00:55;;;;;;;;;;;;;;;;;;5032024;28;19917;-66
2024/02/25 15:03:23;;;;;;;;;;;;;;;;;;5046692;28;20662;-67
2024/02/25 15:05:50;;;;;;;;;;;;;;;;;;5012790;28;20113;-66
2024/02/25 15:08:15;;;;;;;;;;;;;;;;;;5048752;28;21032;-67
2024/02/25 15:10:41;;;;;;;;;;;;;;;;;;5039267;28;19916;-67
2024/02/25 15:13:06;;;;;;;;;;;;;;;;;;5031155;28;21925;-68
2024/02/25 15:15:32;;;;;;;;;;;;;;;;;;5011762;28;19924;-68
2024/02/25 15:17:58;;;;;;;;;;;;;;;;;;5028531;28;19920;-70
2024/02/25 15:20:23;;;;;;;;;;;;;;;;;;5007891;28;20000;-68
2024/02/25 15:22:49;;;;;;;;;;;;;;;;;;5005627;28;19962;-69
2024/02/25 15:25:14;;;;;;;;;;;;;;;;;;5025278;28;19932;-69
2024/02/25 15:27:39;;;;;;;;;;;;;;;;;;5011617;28;20520;-70
2024/02/25 15:30:05;;;;;;;;;;;;;;;;;;5030384;28;20403;-70
2024/02/25 15:32:31;;;;;;;;;;;;;;;;;;5029834;28;19947;-71
2024/02/25 15:34:56;;;;;;;;;;;;;;;;;;5031246;28;20375;-72
2024/02/25 15:37:21;;;;;;;;;;;;;;;;;;5028126;28;19974;-72
2024/02/25 15:39:50;;;;;;;;;;;;;;;;;;5030956;28;20365;-72
2024/02/25 15:42:17;;;;;;;;;;;;;;;;;;5016939;28;19986;-72
2024/02/25 15:44:44;;;;;;;;;;;;;;;;;;5026016;28;20216;-72
2024/02/25 15:47:10;;;;;;;;;;;;;;;;;;5030044;28;19920;-73
2024/02/25 15:49:35;;;;;;;;;;;;;;;;;;5026312;28;19920;-76
2024/02/25 15:52:00;;;;;;;;;;;;;;;;;;5023824;28;19916;-73
2024/02/25 15:54:27;;;;;;;;;;;;;;;;;;5029320;28;20354;-70
2024/02/25 15:56:52;;;;;;;;;;;;;;;;;;5028825;28;19924;-70
2024/02/25 15:59:18;;;;;;;;;;;;;;;;;;5014731;28;19944;-70
2024/02/25 16:01:43;;;;;;;;;;;;;;;;;;5032449;28;20026;-69
2024/02/25 16:04:09;;;;;;;;;;;;;;;;;;5031612;28;20407;-69
2024/02/25 16:06:35;;;;;;;;;;;;;;;;;;5021823;28;19940;-70
2024/02/25 16:09:00;;;;;;;;;;;;;;;;;;5010365;28;19928;-70
2024/02/25 16:11:25;;;;;;;;;;;;;;;;;;5028259;28;20111;-69
2024/02/25 16:13:51;;;;;;;;;;;;;;;;;;5028611;28;20019;-69
2024/02/25 16:16:16;;;;;;;;;;;;;;;;;;5027368;28;20392;-69
2024/02/25 16:18:42;;;;;;;;;;;;;;;;;;5012673;28;20201;-69
2024/02/25 16:21:07;;;;;;;;;;;;;;;;;;5020108;28;19921;-69
2024/02/25 16:23:32;;;;;;;;;;;;;;;;;;5029472;28;19920;-69
2024/02/25 16:25:59;;;;;;;;;;;;;;;;;;5031603;28;20386;-69
2024/02/25 16:28:24;;;;;;;;;;;;;;;;;;5027729;28;20543;-69
2024/02/25 16:30:49;;;;;;;;;;;;;;;;;;5029549;28;19924;-69
2024/02/25 16:33:15;;;;;;;;;;;;;;;;;;5029518;28;19924;-69
2024/02/25 16:35:41;;;;;;;;;;;;;;;;;;5023053;28;19917;-70
2024/02/25 16:38:09;;;;;;;;;;;;;;;;;;5025190;28;19921;-69
2024/02/25 16:40:34;;;;;;;;;;;;;;;;;;5029588;28;19932;-71
2024/02/25 16:43:00;;;;;;;;;;;;;;;;;;4993957;28;19944;-71
2024/02/25 16:45:25;;;;;;;;;;;;;;;;;;5028386;28;19977;-71
2024/02/25 16:47:51;;;;;;;;;;;;;;;;;;5026149;28;19923;-71